Terminal Aerodrome Forecast
Issued by NWS Goodland, KS

Home | Current Version | Previous Version | Text Only | Print | Product List | Glossary On
Versions: 1 2 3 4 5 6 7 8 9 10 11 12 13
000
FTUS43 KGLD 262115 AAA
TAFGLD
TAF AMD
KGLD 262115Z 2621/2718 35013G21KT 3SM -SN BR SCT015 BKN025
      TEMPO 2621/2624 1SM -SN BR
     FM270000 36011KT 1SM -SN BR SCT008 BKN015
     FM270300 35009KT P6SM SCT008 SCT015 BKN025
     FM271200 30008KT P6SM SKC=

USA.gov is the U.S. government's official web portal to all federal, state and local government web resources and services.